Time;durP1;ratioP1;P1;durP2;ratioP2;P2;SDS_P1;SDS_P2;PMS_P1;PMS_P2;Temp;Humidity;BMP_temperature;BMP_pressure;BME280_temperature;BME280_humidity;BME280_pressure;Samples;Min_cycle;Max_cycle;Signal;HPM_P1;HPM_P2
2023/01/23 00:01:36;;;;;;;16.80;7.38;;;3.50;99.90;;;3.26;100.00;102684.38;5194389;28;20046;-84
2023/01/23 00:04:14;;;;;;;15.88;6.13;;;3.50;99.90;;;3.26;100.00;102683.47;5195306;28;20412;-85
2023/01/23 00:06:47;;;;;;;16.05;6.20;;;3.50;99.90;;;3.28;100.00;102688.78;5174163;28;20066;-84
2023/01/23 00:09:19;;;;;;;18.48;6.78;;;3.50;99.90;;;3.27;100.00;102695.59;5179408;28;20042;-84
2023/01/23 00:11:51;;;;;;;17.88;6.32;;;3.50;99.90;;;3.25;100.00;102689.38;5193619;28;20057;-85
2023/01/23 00:14:23;;;;;;;17.90;6.35;;;3.50;99.90;;;3.25;100.00;102691.94;5180917;28;20039;-83
2023/01/23 00:16:55;;;;;;;16.17;6.35;;;3.60;99.90;;;3.22;100.00;102687.44;5178852;28;20049;-85
2023/01/23 00:19:29;;;;;;;15.75;6.15;;;3.50;99.90;;;3.26;100.00;102693.78;5178012;28;20049;-84
2023/01/23 00:22:01;;;;;;;16.23;6.40;;;3.50;99.90;;;3.21;100.00;102687.28;5195027;28;20500;-85
2023/01/23 00:24:33;;;;;;;15.75;6.07;;;3.50;99.90;;;3.24;100.00;102688.47;5181219;28;20114;-84
2023/01/23 00:27:05;;;;;;;15.50;5.97;;;3.50;99.90;;;3.24;100.00;102691.03;5199816;28;20049;-84
2023/01/23 00:29:37;;;;;;;15.43;6.22;;;3.60;99.90;;;3.26;100.00;102694.69;5185429;28;20050;-85
2023/01/23 00:32:09;;;;;;;15.30;6.05;;;3.50;99.90;;;3.27;100.00;102695.59;5201738;28;20077;-84
2023/01/23 00:34:43;;;;;;;14.98;6.03;;;3.50;99.90;;;3.27;100.00;102674.97;5173930;28;20054;-84
2023/01/23 00:37:16;;;;;;;15.38;6.35;;;3.50;99.90;;;3.28;100.00;102684.53;5188722;28;20054;-83
2023/01/23 00:39:49;;;;;;;16.88;6.03;;;3.60;99.90;;;3.27;100.00;102680.13;5172050;28;20042;-84
2023/01/23 00:42:21;;;;;;;14.02;5.95;;;3.50;99.90;;;3.24;100.00;102690.13;5190390;28;20042;-84
2023/01/23 00:44:53;;;;;;;16.50;6.18;;;3.50;99.90;;;3.24;100.00;102690.13;5174901;28;20077;-83
2023/01/23 00:47:26;;;;;;;16.73;6.72;;;3.50;99.90;;;3.25;100.00;102703.16;5190556;28;20053;-83
2023/01/23 00:49:59;;;;;;;18.65;6.97;;;3.50;99.90;;;3.23;100.00;102693.50;5173942;28;20066;-83
2023/01/23 00:52:31;;;;;;;17.55;6.22;;;3.50;99.90;;;3.22;100.00;102694.25;5189779;28;20042;-84
2023/01/23 00:55:05;;;;;;;17.17;6.28;;;3.50;99.90;;;3.22;100.00;102695.16;5172873;28;20042;-84
2023/01/23 00:57:37;;;;;;;16.85;5.72;;;3.50;99.90;;;3.24;100.00;102692.72;5171764;28;20042;-84
2023/01/23 01:00:11;;;;;;;17.15;6.22;;;3.50;99.90;;;3.21;100.00;102690.78;5174016;28;20102;-84
2023/01/23 01:02:43;;;;;;;13.27;5.20;;;3.50;99.90;;;3.23;100.00;102688.34;5189420;28;20049;-83
2023/01/23 01:05:17;;;;;;;18.30;6.70;;;3.60;99.90;;;3.29;100.00;102701.81;5189383;28;20084;-83
2023/01/23 01:07:53;;;;;;;16.90;6.38;;;3.60;99.90;;;3.25;100.00;102703.16;5172679;28;20070;-84
2023/01/23 01:10:28;;;;;;;17.90;6.85;;;3.60;99.90;;;3.28;100.00;102718.03;5173022;28;20077;-83
2023/01/23 01:13:02;;;;;;;14.40;6.00;;;3.50;99.90;;;3.28;100.00;102710.31;5174438;28;20046;-84
2023/01/23 01:15:35;;;;;;;15.25;6.03;;;3.60;99.90;;;3.28;100.00;102718.03;5189193;28;20050;-83
2023/01/23 01:18:07;;;;;;;16.48;6.55;;;3.50;99.90;;;3.23;100.00;102711.53;5189887;28;20053;-83
2023/01/23 01:20:42;;;;;;;17.00;6.88;;;3.50;99.90;;;3.27;100.00;102716.22;5172890;28;20054;-85
2023/01/23 01:23:15;;;;;;;;;;;3.50;99.90;;;3.26;100.00;102711.84;5175318;28;20056;-84
2023/01/23 01:25:47;;;;;;;16.73;5.93;;;3.50;99.90;;;3.26;100.00;102704.09;5190659;28;19922;-84
2023/01/23 01:28:20;;;;;;;16.25;6.55;;;3.50;99.90;;;3.26;100.00;102706.69;5190379;28;20038;-83
2023/01/23 01:30:53;;;;;;;13.68;5.47;;;3.50;99.90;;;3.26;100.00;102714.41;5174316;28;20105;-84
2023/01/23 01:33:25;;;;;;;18.08;7.03;;;3.50;99.90;;;3.26;100.00;102719.56;5174161;28;20580;-83
2023/01/23 01:35:58;;;;;;;15.00;6.80;;;3.50;99.90;;;3.24;100.00;102719.41;5174752;28;20047;-84
2023/01/23 01:38:30;;;;;;;14.55;6.30;;;3.50;99.90;;;3.26;100.00;102719.56;5190748;28;20436;-84
2023/01/23 01:41:03;;;;;;;14.90;6.13;;;3.60;99.90;;;3.23;100.00;102714.09;5174714;28;20100;-84
2023/01/23 01:43:36;;;;;;;17.27;7.00;;;3.50;99.90;;;3.26;100.00;102714.41;5191005;28;20038;-85
2023/01/23 01:46:21;;;;;;;15.50;6.38;;;3.50;99.90;;;3.24;100.00;102723.66;5175826;28;20097;-84
2023/01/23 01:49:08;;;;;;;15.95;6.22;;;3.50;99.90;;;3.24;100.00;102721.97;5175679;28;20121;-84
2023/01/23 01:51:49;;;;;;;21.27;7.07;;;3.50;99.90;;;3.22;100.00;102717.44;5191168;28;20048;-86
2023/01/23 01:54:27;;;;;;;15.98;6.15;;;3.50;99.90;;;3.21;100.00;102725.94;5171903;28;20048;-84
2023/01/23 01:57:06;;;;;;;16.13;6.40;;;3.50;99.90;;;3.20;100.00;102727.63;5173770;28;20053;-83
2023/01/23 01:59:44;;;;;;;19.63;7.20;;;3.50;99.90;;;3.21;100.00;102736.25;5172071;28;20056;-86
2023/01/23 02:02:24;;;;;;;17.52;6.75;;;3.50;99.90;;;3.22;100.00;102738.06;5172794;28;20050;-85
2023/01/23 02:05:03;;;;;;;17.98;6.20;;;3.50;99.90;;;3.22;100.00;102745.81;5177521;28;20089;-84
2023/01/23 02:07:42;;;;;;;15.00;5.78;;;3.50;99.90;;;3.21;100.00;102742.31;5175166;28;20046;-85
2023/01/23 02:10:15;;;;;;;17.00;6.75;;;3.50;99.90;;;3.21;100.00;102734.59;5179482;28;20042;-84
2023/01/23 02:12:51;;;;;;;19.10;6.72;;;3.50;99.90;;;3.19;100.00;102730.03;5181071;28;20515;-83
2023/01/23 02:15:23;;;;;;;16.73;6.88;;;3.50;99.90;;;3.21;100.00;102737.16;5182440;28;20101;-86
2023/01/23 02:17:55;;;;;;;16.40;6.97;;;3.50;99.90;;;3.18;100.00;102741.09;5197363;28;20433;-85
2023/01/23 02:20:28;;;;;;;18.65;6.82;;;3.50;99.90;;;3.13;100.00;102727.81;5197396;28;20073;-85
2023/01/23 02:23:12;;;;;;;21.23;7.20;;;3.50;99.90;;;3.10;100.00;102721.44;5182483;28;20046;-85
2023/01/23 02:26:01;;;;;;;19.20;7.13;;;3.50;99.90;;;3.13;100.00;102725.22;5183859;28;20046;-85
2023/01/23 02:28:40;;;;;;;18.27;6.65;;;3.40;99.90;;;3.15;100.00;102730.53;5199651;28;20398;-85
2023/01/23 02:31:15;;;;;;;17.95;6.53;;;3.50;99.90;;;3.14;100.00;102721.88;5176592;28;20070;-86
2023/01/23 02:33:52;;;;;;;21.95;8.77;;;3.40;99.90;;;3.15;100.00;102726.28;5176639;28;20038;-85
2023/01/23 02:36:27;;;;;;;17.77;6.72;;;3.50;99.90;;;3.17;100.00;102736.72;5192413;28;20046;-84
2023/01/23 02:39:08;;;;;;;18.05;5.88;;;3.40;99.90;;;3.18;100.00;102735.97;5191746;28;20118;-84
2023/01/23 02:41:46;;;;;;;16.15;5.65;;;3.50;99.90;;;3.17;100.00;102745.34;5187964;28;20042;-84
2023/01/23 02:44:25;;;;;;;14.90;6.35;;;3.50;99.90;;;3.18;100.00;102743.69;5170677;28;20038;-83
2023/01/23 02:47:04;;;;;;;16.63;6.03;;;3.40;99.90;;;3.16;100.00;102737.50;5170477;28;20066;-83
2023/01/23 02:49:37;;;;;;;20.23;7.13;;;3.50;99.90;;;3.16;100.00;102735.81;5185698;28;20041;-82
2023/01/23 02:52:10;;;;;;;17.20;6.72;;;3.50;99.90;;;3.18;100.00;102746.25;5191902;28;20046;-84
2023/01/23 02:54:43;;;;;;;16.27;6.85;;;3.50;99.90;;;3.17;100.00;102740.22;5183219;28;20094;-85
2023/01/23 02:57:16;;;;;;;16.73;6.88;;;3.50;99.90;;;3.17;100.00;102749.59;5200041;28;20073;-85
2023/01/23 03:02:40;;;;;;;14.85;5.43;;;3.50;99.90;;;3.16;100.00;102746.13;5200796;28;20118;-85
2023/01/23 03:05:15;;;;;;;17.35;6.88;;;3.50;99.90;;;3.17;100.00;102747.94;5185858;28;20042;-84
2023/01/23 03:07:47;;;;;;;15.02;5.68;;;3.50;99.90;;;3.18;100.00;102751.41;5186305;28;20054;-83
2023/01/23 03:10:19;;;;;;;16.25;6.75;;;3.50;99.90;;;3.18;100.00;102744.59;5190294;28;20194;-85
2023/01/23 03:12:53;;;;;;;15.70;6.45;;;3.50;99.90;;;3.17;100.00;102744.44;5206776;28;20042;-88
2023/01/23 03:15:25;;;;;;;17.55;6.53;;;3.40;99.90;;;3.14;100.00;102739.94;5190331;28;20054;-85
2023/01/23 03:17:57;;;;;;;16.42;6.40;;;3.50;99.90;;;3.14;100.00;102750.25;5181769;28;20046;-84
2023/01/23 03:20:29;;;;;;;19.02;6.10;;;3.50;99.90;;;3.12;100.00;102745.69;5180301;28;20046;-84
2023/01/23 03:23:02;;;;;;;17.55;6.63;;;3.40;99.90;;;3.10;100.00;102748.13;5181107;28;20066;-84
2023/01/23 03:25:34;;;;;;;16.92;6.53;;;3.40;99.90;;;3.09;100.00;102751.47;5197636;28;20058;-84
2023/01/23 03:30:11;;;;;;;19.48;7.20;;;3.40;99.90;;;3.08;100.00;102759.06;5182391;28;20051;-85
2023/01/23 03:31:00;;;;;;;17.05;5.85;;;3.40;99.90;;;3.06;100.00;102757.97;5181709;28;20054;-86
2023/01/23 03:33:32;;;;;;;14.05;5.32;;;3.40;99.90;;;3.06;100.00;102755.41;5181823;28;20042;-85
2023/01/23 03:36:04;;;;;;;16.35;6.78;;;3.40;99.90;;;3.06;100.00;102758.88;5198911;28;20074;-84
2023/01/23 03:38:38;;;;;;;16.10;6.05;;;3.40;99.90;;;3.05;100.00;102757.06;5182679;28;20050;-85
2023/01/23 03:41:26;;;;;;;17.55;5.65;;;3.30;99.90;;;3.05;100.00;102758.75;5199643;28;20053;-85
2023/01/23 03:44:04;;;;;;;17.00;5.47;;;3.30;99.90;;;3.03;100.00;102756.03;5182969;28;20070;-85
2023/01/23 03:46:37;;;;;;;16.40;5.72;;;3.30;99.90;;;3.03;100.00;102752.53;5182989;28;20046;-85
2023/01/23 03:49:09;;;;;;;19.45;6.47;;;3.30;99.90;;;3.02;100.00;102763.63;5182517;28;20033;-86
2023/01/23 03:51:41;;;;;;;16.58;5.82;;;3.40;99.90;;;3.05;100.00;102769.03;5199663;28;20057;-85
2023/01/23 03:54:14;;;;;;;18.33;5.50;;;3.30;99.90;;;3.04;100.00;102762.09;5182717;28;20066;-85
2023/01/23 03:56:46;;;;;;;17.63;6.10;;;3.30;99.90;;;3.05;100.00;102769.94;5183046;28;20042;-84
2023/01/23 03:59:37;;;;;;;19.75;6.85;;;3.30;99.90;;;3.05;100.00;102772.53;5200187;28;20060;-85
2023/01/23 04:02:09;;;;;;;15.48;5.72;;;3.30;99.90;;;3.06;100.00;102760.56;5183584;28;20046;-85
2023/01/23 04:04:41;;;;;;;17.98;6.97;;;3.30;99.90;;;3.03;100.00;102760.28;5183433;28;20042;-84
2023/01/23 04:07:13;;;;;;;16.48;5.90;;;3.30;99.90;;;3.02;100.00;102758.47;5199721;28;20030;-86
2023/01/23 04:09:47;;;;;;;16.25;6.05;;;3.30;99.90;;;2.97;100.00;102753.75;5185131;28;20065;-85
2023/01/23 04:12:19;;;;;;;19.25;7.15;;;3.30;99.90;;;2.96;100.00;102759.69;5186178;28;20070;-87
2023/01/23 04:14:55;;;;;;;18.88;6.30;;;3.30;99.90;;;2.95;100.00;102763.03;5185552;28;20032;-86
2023/01/23 04:17:27;;;;;;;16.98;6.22;;;3.30;99.90;;;2.93;100.00;102754.25;5199597;28;20046;-86
2023/01/23 04:19:59;;;;;;;18.25;6.63;;;3.20;99.90;;;2.95;100.00;102763.03;5196451;28;20042;-85
2023/01/23 04:22:33;;;;;;;19.33;6.63;;;3.20;99.90;;;2.94;100.00;102756.06;5176228;28;20078;-84
2023/01/23 04:25:06;;;;;;;16.60;5.82;;;3.30;99.90;;;2.91;100.00;102757.41;5176528;28;20046;-84
2023/01/23 04:27:38;;;;;;;18.80;6.60;;;3.20;99.90;;;2.86;100.00;102754.38;5195247;28;20045;-85
2023/01/23 04:30:14;;;;;;;16.40;6.18;;;3.20;99.90;;;2.85;100.00;102751.66;5179072;28;20057;-85
2023/01/23 04:32:46;;;;;;;16.80;5.97;;;3.20;99.90;;;2.84;100.00;102749.84;5177937;28;20069;-85
2023/01/23 04:35:20;;;;;;;17.80;6.30;;;3.20;99.90;;;2.82;100.00;102739.41;5177341;28;20074;-85
2023/01/23 04:37:52;;;;;;;12.70;5.22;;;3.20;99.90;;;2.78;100.00;102742.44;5176119;28;20038;-85
2023/01/23 04:40:26;;;;;;;13.50;5.63;;;3.10;99.90;;;2.73;100.00;102741.97;5176531;28;20070;-84
2023/01/23 04:43:02;;;;;;;15.50;6.30;;;3.10;99.90;;;2.70;100.00;102739.13;5177420;28;20069;-85
2023/01/23 04:45:50;;;;;;;15.05;5.32;;;3.10;99.90;;;2.64;100.00;102738.53;5177587;28;20129;-84
2023/01/23 04:48:55;;;;;;;17.00;6.07;;;3.00;99.90;;;2.59;100.00;102744.00;5187842;28;20057;-84
2023/01/23 04:51:28;;;;;;;14.73;5.40;;;2.90;99.90;;;2.56;100.00;102743.69;5187877;28;20057;-84
2023/01/23 04:54:01;;;;;;;14.02;5.45;;;2.90;99.90;;;2.51;100.00;102740.66;5187544;28;20092;-84
2023/01/23 04:56:33;;;;;;;12.30;5.00;;;2.80;99.90;;;2.44;100.00;102739.16;5170925;28;20144;-84
2023/01/23 04:59:07;;;;;;;14.68;5.47;;;2.80;99.90;;;2.39;100.00;102754.91;5186635;28;20074;-84
2023/01/23 05:01:42;;;;;;;13.27;4.75;;;2.70;99.90;;;2.34;100.00;102756.09;5187035;28;20156;-85
2023/01/23 05:04:15;;;;;;;12.68;4.85;;;2.70;99.90;;;2.28;100.00;102755.50;5186772;28;20042;-84
2023/01/23 05:06:47;;;;;;;12.80;4.53;;;2.60;99.90;;;2.22;100.00;102755.84;5169806;28;20049;-84
2023/01/23 05:09:21;;;;;;;14.30;4.47;;;2.50;99.90;;;2.18;100.00;102764.91;5186195;28;20085;-84
2023/01/23 05:11:57;;;;;;;15.05;5.30;;;2.50;99.90;;;2.12;100.00;102772.00;5186100;28;20054;-84
2023/01/23 05:14:35;;;;;;;14.80;5.03;;;2.50;99.90;;;2.06;100.00;102773.06;5170796;28;20061;-83
2023/01/23 05:17:09;;;;;;;15.13;5.78;;;2.40;99.90;;;2.04;100.00;102770.34;5186496;28;20034;-84
2023/01/23 05:19:46;;;;;;;15.68;5.95;;;2.40;99.90;;;2.03;100.00;102783.06;5186335;28;20054;-83
2023/01/23 05:22:19;;;;;;;15.50;5.45;;;2.40;99.90;;;2.02;100.00;102789.88;5186284;28;20062;-83
2023/01/23 05:24:51;;;;;;;19.35;7.03;;;2.40;99.90;;;2.00;100.00;102785.31;5170337;28;20530;-83
2023/01/23 05:27:23;;;;;;;16.88;6.53;;;2.40;99.90;;;2.01;100.00;102794.84;5170608;28;20070;-80
2023/01/23 05:29:56;;;;;;;20.75;7.93;;;2.30;99.90;;;2.03;100.00;102777.91;5169853;28;20046;-85
2023/01/23 05:32:32;;;;;;;17.35;5.82;;;2.40;99.90;;;2.04;100.00;102772.91;5185921;28;20051;-83
2023/01/23 05:35:15;;;;;;;16.67;6.00;;;2.40;99.90;;;2.10;100.00;102776.09;5169662;28;20047;-83
2023/01/23 05:37:50;;;;;;;18.15;7.07;;;2.40;99.90;;;2.10;100.00;102776.09;5169736;28;20038;-85
2023/01/23 05:40:25;;;;;;;17.25;6.68;;;2.40;99.90;;;2.09;100.00;102773.38;5169630;28;20066;-83
2023/01/23 05:43:16;;;;;;;19.38;6.82;;;2.50;99.90;;;2.10;100.00;102780.34;5174279;28;20065;-81
2023/01/23 05:46:21;;;;;;;16.00;6.22;;;2.40;99.90;;;2.09;100.00;102782.00;5152487;28;20095;-84
2023/01/23 05:48:58;;;;;;;18.25;6.63;;;2.50;99.90;;;2.09;100.00;102778.53;5189722;28;20073;-84
2023/01/23 05:51:32;;;;;;;13.50;5.43;;;2.40;99.90;;;2.10;100.00;102788.06;5190303;28;20081;-83
2023/01/23 05:54:05;;;;;;;16.13;6.15;;;2.40;99.90;;;2.10;100.00;102781.25;5190266;28;20460;-83
2023/01/23 05:56:39;;;;;;;18.35;6.25;;;2.40;99.90;;;2.09;100.00;102778.53;5173854;28;20043;-83
2023/01/23 05:59:29;;;;;;;20.08;7.10;;;2.40;99.90;;;2.10;100.00;102775.19;5178174;28;20049;-83
2023/01/23 06:02:19;;;;;;;14.07;5.78;;;2.40;99.90;;;2.11;100.00;102782.16;5173833;28;20050;-84
2023/01/23 06:05:11;;;;;;;14.85;5.68;;;2.50;99.90;;;2.14;100.00;102785.00;5174904;28;20125;-83
2023/01/23 06:08:03;;;;;;;14.50;5.05;;;2.50;99.90;;;2.14;100.00;102785.00;5173383;28;20062;-83
2023/01/23 06:10:37;;;;;;;16.33;5.75;;;2.50;99.90;;;2.18;100.00;102794.88;5174582;28;20050;-84
2023/01/23 06:13:09;;;;;;;17.70;6.18;;;2.50;99.90;;;2.17;100.00;102793.97;5191663;28;20038;-83
2023/01/23 06:15:42;;;;;;;15.40;5.55;;;2.50;99.90;;;2.19;100.00;102799.25;5175651;28;20042;-84
2023/01/23 06:18:16;;;;;;;14.48;6.07;;;2.50;99.90;;;2.21;100.00;102799.41;5191575;28;20054;-83
2023/01/23 06:20:50;;;;;;;15.55;6.05;;;2.50;99.90;;;2.24;100.00;102800.63;5189566;28;20054;-83
2023/01/23 06:23:22;;;;;;;19.75;6.65;;;2.60;99.90;;;2.23;100.00;102805.63;5190105;28;20056;-83
2023/01/23 06:25:59;;;;;;;17.52;7.22;;;2.60;99.90;;;2.25;100.00;102814.41;5190636;28;20101;-83
2023/01/23 06:28:31;;;;;;;18.30;6.43;;;2.60;99.90;;;2.28;100.00;102813.06;5190741;28;20038;-83
2023/01/23 06:31:06;;;;;;;17.67;6.63;;;2.60;99.90;;;2.30;100.00;102815.78;5189773;28;20039;-83
2023/01/23 06:33:53;;;;;;;17.75;6.68;;;2.60;99.90;;;2.32;100.00;102822.88;5249619;23;20046;-74
2023/01/23 06:36:32;;;;;;;18.60;7.32;;;2.60;99.90;;;2.32;100.00;102825.47;5178920;28;20054;-75
2023/01/23 06:39:04;;;;;;;18.92;7.00;;;2.60;99.90;;;2.35;100.00;102827.47;5181758;28;20043;-75
2023/01/23 06:41:43;;;;;;;22.52;7.60;;;2.70;99.90;;;2.34;100.00;102831.66;5165850;28;20053;-74
2023/01/23 06:44:21;;;;;;;17.98;6.57;;;2.70;99.90;;;2.33;100.00;102837.56;5165692;28;20491;-75
2023/01/23 06:46:53;;;;;;;17.70;6.80;;;2.70;99.90;;;2.33;100.00;102836.66;5166794;28;20050;-75
2023/01/23 06:49:28;;;;;;;17.08;6.55;;;2.70;99.90;;;2.34;100.00;102841.97;5165016;28;20093;-75
2023/01/23 06:52:02;;;;;;;20.13;7.63;;;2.70;99.90;;;2.35;100.00;102848.97;5165918;28;20054;-75
2023/01/23 06:54:34;;;;;;;17.52;7.03;;;2.70;99.90;;;2.37;100.00;102851.69;5165501;28;20132;-75
2023/01/23 06:57:08;;;;;;;17.92;6.88;;;2.70;99.90;;;2.39;100.00;102858.78;5165618;28;20450;-75
2023/01/23 06:59:40;;;;;;;17.38;7.57;;;2.70;99.90;;;2.41;100.00;102866.66;5165719;28;20131;-74
2023/01/23 07:02:15;;;;;;;18.15;6.18;;;2.70;99.90;;;2.40;100.00;102855.44;5165719;28;20052;-75
2023/01/23 07:04:53;;;;;;;18.65;6.65;;;2.70;99.90;;;2.43;100.00;102868.66;5164429;28;20043;-64
2023/01/23 07:07:26;;;;;;;18.23;7.00;;;2.80;99.90;;;2.44;100.00;102875.59;5163939;28;20070;-65
2023/01/23 07:09:59;;;;;;;13.35;5.13;;;2.80;99.90;;;2.50;100.00;102875.31;5163681;28;20042;-62
2023/01/23 07:12:31;;;;;;;15.00;6.25;;;2.80;99.90;;;2.55;100.00;102880.94;5164284;28;20070;-63
2023/01/23 07:15:06;;;;;;;18.10;6.30;;;2.90;99.90;;;2.58;100.00;102888.94;5165262;28;20075;-62
2023/01/23 07:17:43;;;;;;;17.88;6.28;;;2.90;99.90;;;2.61;100.00;102890.19;5163701;28;20042;-62
2023/01/23 07:20:15;;;;;;;14.32;5.47;;;2.90;99.90;;;2.65;100.00;102896.53;5164898;28;20054;-62
2023/01/23 07:22:56;;;;;;;16.60;5.88;;;2.90;99.90;;;2.68;100.00;102896.84;5180048;28;20061;-63
2023/01/23 07:25:29;;;;;;;16.85;6.07;;;3.00;99.90;;;2.71;100.00;102912.59;5165151;28;20042;-63
2023/01/23 07:28:01;;;;;;;14.27;5.65;;;3.00;99.90;;;2.72;100.00;102904.09;5164637;28;20049;-62
2023/01/23 07:30:33;;;;;;;16.42;5.90;;;3.00;99.90;;;2.75;100.00;102899.28;5164430;28;20050;-63
2023/01/23 07:33:05;;;;;;;14.30;5.25;;;3.10;99.90;;;2.76;100.00;102901.09;5164918;28;20499;-62
2023/01/23 07:35:39;;;;;;;15.20;5.68;;;3.10;99.90;;;2.77;100.00;102897.75;5164728;28;20439;-63
2023/01/23 07:38:12;;;;;;;15.55;6.10;;;3.00;99.90;;;2.78;100.00;102897.00;5164437;28;20152;-63
2023/01/23 07:40:44;;;;;;;17.13;6.85;;;3.10;99.90;;;2.77;100.00;102890.03;5164308;28;20057;-63
2023/01/23 07:43:16;;;;;;;14.35;5.82;;;3.10;99.90;;;2.78;100.00;102901.25;5164934;28;20526;-61
2023/01/23 07:45:49;;;;;;;16.70;5.85;;;3.10;99.90;;;2.80;100.00;102899.72;5164722;28;20573;-63
2023/01/23 07:48:21;;;;;;;16.40;6.07;;;3.10;99.90;;;2.79;100.00;102903.97;5164520;28;20046;-63
2023/01/23 07:50:53;;;;;;;18.15;6.05;;;3.10;99.90;;;2.81;100.00;102901.56;5164122;28;20050;-63
2023/01/23 07:53:26;;;;;;;16.23;6.43;;;3.10;99.90;;;2.83;100.00;102907.75;5164819;28;20526;-61
2023/01/23 07:55:58;;;;;;;15.02;5.18;;;3.10;99.90;;;2.86;100.00;102901.22;5163210;28;20137;-62
2023/01/23 07:58:31;;;;;;;13.52;5.28;;;3.20;99.90;;;2.91;100.00;102896.53;5164431;28;20049;-59
2023/01/23 08:01:08;;;;;;;13.02;5.18;;;3.20;99.90;;;2.97;100.00;102892.00;5164091;28;20050;-60
2023/01/23 08:03:40;;;;;;;13.32;5.53;;;3.30;99.90;;;2.99;100.00;102888.78;5164444;28;20073;-59
2023/01/23 08:06:13;;;;;;;18.05;5.90;;;3.30;99.90;;;3.04;100.00;102901.25;5163870;28;20148;-60
2023/01/23 08:08:48;;;;;;;14.55;5.57;;;3.30;99.90;;;3.06;100.00;102905.78;5163935;28;20042;-58
2023/01/23 08:11:22;;;;;;;15.18;5.80;;;3.40;99.90;;;3.10;100.00;102912.16;5163524;28;20034;-59
2023/01/23 08:13:54;;;;;;;15.77;5.47;;;3.40;99.90;;;3.10;100.00;102904.41;5178780;28;20052;-61
2023/01/23 08:16:26;;;;;;;16.67;6.43;;;3.40;99.90;;;3.12;100.00;102905.47;5164529;28;20499;-60
2023/01/23 08:18:59;;;;;;;14.80;5.30;;;3.40;99.90;;;3.17;100.00;102912.91;5163852;28;20104;-61
2023/01/23 08:21:31;;;;;;;15.52;6.18;;;3.50;99.90;;;3.22;100.00;102908.19;5163945;28;20074;-61
2023/01/23 08:24:05;;;;;;;16.88;6.35;;;3.50;99.90;;;3.24;100.00;102919.56;5163673;28;20050;-62
2023/01/23 08:26:37;;;;;;;16.35;5.80;;;3.50;99.90;;;3.24;100.00;102916.97;5163318;28;20137;-61
2023/01/23 08:29:10;;;;;;;13.70;5.20;;;3.60;99.90;;;3.28;100.00;102923.38;5161720;28;20047;-60
2023/01/23 08:31:42;;;;;;;13.00;5.38;;;3.60;99.90;;;3.28;100.00;102920.78;5163789;28;20054;-60
2023/01/23 08:34:14;;;;;;;16.45;5.38;;;3.60;99.90;;;3.30;100.00;102927.91;5163747;28;20046;-60
2023/01/23 08:36:47;;;;;;;13.18;5.93;;;3.60;99.90;;;3.29;100.00;102926.09;5163470;28;20054;-60
2023/01/23 08:39:20;;;;;;;14.02;5.05;;;3.60;99.90;;;3.30;100.00;102927.91;5163743;28;20124;-60
2023/01/23 08:41:52;;;;;;;14.63;5.45;;;3.60;99.90;;;3.33;100.00;102922.16;5163799;28;20050;-60
2023/01/23 08:44:25;;;;;;;11.75;5.15;;;3.60;99.90;;;3.36;100.00;102933.66;5163552;28;20042;-60
2023/01/23 08:46:57;;;;;;;14.00;4.88;;;3.70;99.90;;;3.38;100.00;102937.28;5163048;28;20050;-61
2023/01/23 08:49:29;;;;;;;14.13;5.18;;;3.60;99.90;;;3.41;100.00;102928.94;5178150;28;20046;-60
2023/01/23 08:52:03;;;;;;;12.10;5.15;;;3.70;99.90;;;3.44;100.00;102932.72;5164166;28;20058;-62
2023/01/23 08:54:37;;;;;;;16.50;5.35;;;3.70;99.90;;;3.64;100.00;102932.06;5163210;28;20517;-65
2023/01/23 08:57:09;;;;;;;20.90;5.82;;;4.00;99.90;;;4.36;100.00;102931.16;5163279;28;20049;-60
2023/01/23 08:59:43;;;;;;;13.43;5.15;;;4.70;99.90;;;4.68;100.00;102930.69;5163112;28;20048;-61
2023/01/23 09:02:15;;;;;;;17.52;6.68;;;5.10;99.90;;;4.59;100.00;102934.22;5163159;28;20069;-61
2023/01/23 09:04:47;;;;;;;16.67;5.53;;;5.10;99.90;;;4.46;100.00;102928.69;5162834;28;20054;-64
2023/01/23 09:07:19;;;;;;;14.98;5.75;;;5.00;99.90;;;4.76;100.00;102935.81;5163508;28;20118;-60
2023/01/23 09:09:53;;;;;;;21.17;6.65;;;5.30;99.90;;;4.59;100.00;102939.41;5163181;28;20518;-60
2023/01/23 09:12:25;;;;;;;19.65;6.40;;;5.10;99.90;;;4.51;100.00;102942.94;5163147;28;20073;-57
2023/01/23 09:14:57;;;;;;;13.52;5.88;;;5.00;99.90;;;4.46;100.00;102939.03;5163718;28;20056;-61
2023/01/23 09:17:30;;;;;;;17.27;6.35;;;4.90;99.90;;;4.42;100.00;102942.06;5162583;28;20053;-60
2023/01/23 09:20:04;;;;;;;13.57;5.38;;;4.90;99.90;;;5.28;100.00;102942.19;5163641;28;20058;-61
2023/01/23 09:22:36;;;;;;;13.73;5.43;;;5.80;99.90;;;5.47;100.00;102940.50;5163641;28;20522;-60
2023/01/23 09:25:11;;;;;;;13.60;6.15;;;6.00;99.90;;;5.22;100.00;102940.00;5163866;28;20403;-60
2023/01/23 09:27:43;;;;;;;15.77;5.65;;;5.80;99.90;;;5.06;100.00;102932.50;5162951;28;20046;-61
2023/01/23 09:30:15;;;;;;;14.23;5.93;;;5.60;99.90;;;4.92;100.00;102932.94;5162976;28;20035;-61
2023/01/23 09:32:47;;;;;;;15.73;5.97;;;5.40;99.90;;;4.77;100.00;102942.78;5163185;28;20046;-61
2023/01/23 09:35:20;;;;;;;14.88;5.70;;;5.20;99.90;;;4.67;100.00;102939.19;5162991;28;20480;-61
2023/01/23 09:38:03;;;;;;;14.18;5.00;;;5.10;99.90;;;4.79;100.00;102945.50;5163018;28;20050;-60
2023/01/23 09:40:45;;;;;;;15.07;5.68;;;5.20;99.90;;;4.73;100.00;102944.94;5162759;28;20081;-60
2023/01/23 09:43:23;;;;;;;16.63;5.93;;;5.10;99.90;;;4.61;100.00;102955.94;5163159;28;20051;-61
2023/01/23 09:46:05;;;;;;;15.57;5.72;;;5.00;99.90;;;4.46;100.00;102951.94;5163231;28;20085;-61
2023/01/23 09:48:44;;;;;;;13.40;5.53;;;4.80;99.90;;;4.38;100.00;102950.31;5162951;28;20061;-61
2023/01/23 09:51:24;;;;;;;16.55;6.72;;;4.70;99.90;;;4.31;100.00;102955.69;5162912;28;20049;-60
2023/01/23 09:54:01;;;;;;;13.88;5.60;;;4.70;99.90;;;4.26;100.00;102955.25;5162976;28;20050;-60
2023/01/23 09:56:41;;;;;;;13.00;5.65;;;4.60;99.90;;;4.27;100.00;102961.31;5162989;28;20045;-60
2023/01/23 09:59:22;;;;;;;15.75;5.15;;;4.60;99.90;;;4.27;100.00;102962.22;5162571;28;20123;-60
2023/01/23 10:01:54;;;;;;;14.80;5.82;;;4.60;99.90;;;4.24;100.00;102966.19;5162770;28;20043;-61
2023/01/23 10:04:28;;;;;;;15.00;5.45;;;4.60;99.90;;;4.21;100.00;102963.31;5163081;28;20078;-60
2023/01/23 10:07:35;;;;;;;13.57;5.80;;;4.50;99.90;;;4.19;100.00;102972.59;5164660;28;20038;-61
2023/01/23 10:10:39;;;;;;;12.52;5.18;;;4.50;99.90;;;4.16;100.00;102970.59;5165822;28;20050;-60
2023/01/23 10:13:17;;;;;;;12.93;5.22;;;4.50;99.90;;;4.16;100.00;102975.78;5162681;28;20522;-60
2023/01/23 10:16:27;;;;;;;15.05;6.35;;;4.50;99.90;;;4.17;100.00;102979.25;5162767;28;20069;-59
2023/01/23 10:19:16;;;;;;;13.43;5.32;;;4.50;99.90;;;4.18;100.00;102971.69;5162578;28;20042;-61
2023/01/23 10:21:55;;;;;;;12.90;4.35;;;4.50;99.90;;;4.23;100.00;102975.59;5162558;28;20043;-60
2023/01/23 10:24:43;;;;;;;11.60;4.95;;;4.50;99.90;;;4.26;100.00;102972.41;5162117;28;20054;-60
2023/01/23 10:27:20;;;;;;;14.35;6.00;;;4.50;99.90;;;4.25;100.00;102971.50;5157333;28;20563;-60
2023/01/23 10:29:59;;;;;;;12.35;4.82;;;4.50;99.90;;;4.27;100.00;102969.06;5165769;28;20074;-60
2023/01/23 10:32:42;;;;;;;16.60;6.30;;;4.50;99.90;;;4.27;100.00;102966.47;5166211;28;20047;-60
2023/01/23 10:35:20;;;;;;;14.90;6.32;;;4.50;99.90;;;4.26;100.00;102965.56;5165501;28;20039;-60
2023/01/23 10:38:01;;;;;;;13.38;5.32;;;4.60;99.90;;;4.32;100.00;102970.41;5164964;28;20122;-61
2023/01/23 10:43:23;;;;;;;12.02;4.68;;;4.60;99.90;;;4.40;100.00;102974.59;5166077;28;20491;-60
2023/01/23 10:45:56;;;;;;;11.80;4.85;;;4.70;99.90;;;4.42;100.00;102962.72;5165713;28;20054;-60
2023/01/23 10:48:40;;;;;;;12.18;4.28;;;4.70;99.90;;;4.46;100.00;102962.28;5165904;28;20042;-60
2023/01/23 10:51:45;;;;;;;13.32;4.57;;;4.70;99.90;;;4.50;100.00;102966.03;5165632;28;20053;-61
2023/01/23 10:54:20;;;;;;;10.27;4.20;;;4.80;99.90;;;4.52;100.00;102965.44;5165021;28;20503;-61